sensor_id;sensor_type;location;lat;lon;timestamp;temperature;humidity
70076;DHT22;63241;51.056;3.698;2023-02-21T01:13:55;9.60;99.90
70076;DHT22;63241;51.056;3.698;2023-02-21T01:16:41;9.70;99.90
70076;DHT22;63241;51.056;3.698;2023-02-21T01:19:27;9.60;99.90
70076;DHT22;63241;51.056;3.698;2023-02-21T01:22:12;9.60;99.90
70076;DHT22;63241;51.056;3.698;2023-02-21T01:24:57;9.60;99.90
70076;DHT22;63241;51.056;3.698;2023-02-21T01:27:43;9.50;99.90
70076;DHT22;63241;51.056;3.698;2023-02-21T01:30:29;9.60;99.90
70076;DHT22;63241;51.056;3.698;2023-02-21T01:33:14;9.50;99.90
70076;DHT22;63241;51.056;3.698;2023-02-21T01:36:03;9.50;99.90
70076;DHT22;63241;51.056;3.698;2023-02-21T01:38:47;9.50;99.90
70076;DHT22;63241;51.056;3.698;2023-02-21T01:41:32;9.50;99.90
70076;DHT22;63241;51.056;3.698;2023-02-21T01:44:38;9.50;99.90
70076;DHT22;63241;51.056;3.698;2023-02-21T01:47:25;9.40;99.90
70076;DHT22;63241;51.056;3.698;2023-02-21T01:50:28;9.40;99.90
70076;DHT22;63241;51.056;3.698;2023-02-21T01:53:20;9.40;99.90
70076;DHT22;63241;51.056;3.698;2023-02-21T01:56:06;9.50;99.90
70076;DHT22;63241;51.056;3.698;2023-02-21T01:58:55;9.40;99.90
70076;DHT22;63241;51.056;3.698;2023-02-21T02:01:48;9.40;99.90
70076;DHT22;63241;51.056;3.698;2023-02-21T02:04:31;9.50;99.90
70076;DHT22;63241;51.056;3.698;2023-02-21T02:07:18;9.50;99.90
70076;DHT22;63241;51.056;3.698;2023-02-21T02:10:04;9.50;99.90
70076;DHT22;63241;51.056;3.698;2023-02-21T02:15:33;9.50;99.90
70076;DHT22;63241;51.056;3.698;2023-02-21T02:18:20;9.40;99.90
70076;DHT22;63241;51.056;3.698;2023-02-21T02:23:59;9.40;99.90
70076;DHT22;63241;51.056;3.698;2023-02-21T02:26:49;9.40;99.90
70076;DHT22;63241;51.056;3.698;2023-02-21T02:29:29;9.30;99.90
70076;DHT22;63241;51.056;3.698;2023-02-21T02:32:17;9.40;99.90
70076;DHT22;63241;51.056;3.698;2023-02-21T02:34:45;9.40;99.90
70076;DHT22;63241;51.056;3.698;2023-02-21T02:42:37;9.50;99.90
70076;DHT22;63241;51.056;3.698;2023-02-21T03:18:03;9.30;99.90
70076;DHT22;63241;51.056;3.698;2023-02-21T03:20:32;9.30;99.90
70076;DHT22;63241;51.056;3.698;2023-02-21T03:23:02;9.30;99.90
70076;DHT22;63241;51.056;3.698;2023-02-21T03:25:32;9.30;99.90
70076;DHT22;63241;51.056;3.698;2023-02-21T03:28:01;9.30;99.90
70076;DHT22;63241;51.056;3.698;2023-02-21T03:30:29;9.30;99.90
70076;DHT22;63241;51.056;3.698;2023-02-21T03:32:57;9.30;99.90
70076;DHT22;63241;51.056;3.698;2023-02-21T03:35:28;9.30;99.90
70076;DHT22;63241;51.056;3.698;2023-02-21T03:37:57;9.30;99.90
70076;DHT22;63241;51.056;3.698;2023-02-21T03:40:30;9.40;99.90
70076;DHT22;63241;51.056;3.698;2023-02-21T03:43:00;9.40;99.90
70076;DHT22;63241;51.056;3.698;2023-02-21T03:45:28;9.50;99.90
70076;DHT22;63241;51.056;3.698;2023-02-21T03:47:55;9.40;99.90
70076;DHT22;63241;51.056;3.698;2023-02-21T03:50:23;9.50;99.90
70076;DHT22;63241;51.056;3.698;2023-02-21T03:52:51;9.40;99.90
70076;DHT22;63241;51.056;3.698;2023-02-21T03:55:19;9.40;99.90
70076;DHT22;63241;51.056;3.698;2023-02-21T03:57:47;9.40;99.90
70076;DHT22;63241;51.056;3.698;2023-02-21T04:00:15;9.40;99.90
70076;DHT22;63241;51.056;3.698;2023-02-21T04:02:43;9.30;99.90
70076;DHT22;63241;51.056;3.698;2023-02-21T04:05:10;9.30;99.90
70076;DHT22;63241;51.056;3.698;2023-02-21T04:07:38;9.20;99.90
70076;DHT22;63241;51.056;3.698;2023-02-21T04:10:06;9.30;99.90
70076;DHT22;63241;51.056;3.698;2023-02-21T04:12:34;9.30;99.90
70076;DHT22;63241;51.056;3.698;2023-02-21T04:15:02;9.30;99.90
70076;DHT22;63241;51.056;3.698;2023-02-21T04:17:29;9.30;99.90
70076;DHT22;63241;51.056;3.698;2023-02-21T04:19:57;9.20;99.90
70076;DHT22;63241;51.056;3.698;2023-02-21T04:22:24;9.10;99.90
70076;DHT22;63241;51.056;3.698;2023-02-21T04:24:52;9.00;99.90
70076;DHT22;63241;51.056;3.698;2023-02-21T04:27:20;8.90;99.90
70076;DHT22;63241;51.056;3.698;2023-02-21T04:29:47;8.90;99.90
70076;DHT22;63241;51.056;3.698;2023-02-21T04:32:15;9.00;99.90
70076;DHT22;63241;51.056;3.698;2023-02-21T04:34:43;9.00;99.90
70076;DHT22;63241;51.056;3.698;2023-02-21T04:37:10;9.10;99.90
70076;DHT22;63241;51.056;3.698;2023-02-21T04:39:38;9.10;99.90
70076;DHT22;63241;51.056;3.698;2023-02-21T04:42:07;9.00;99.90
70076;DHT22;63241;51.056;3.698;2023-02-21T04:44:35;9.00;99.90
70076;DHT22;63241;51.056;3.698;2023-02-21T04:47:03;9.00;99.90
70076;DHT22;63241;51.056;3.698;2023-02-21T04:49:30;8.90;99.90
70076;DHT22;63241;51.056;3.698;2023-02-21T04:51:58;8.90;99.90
70076;DHT22;63241;51.056;3.698;2023-02-21T04:54:26;8.80;99.90
70076;DHT22;63241;51.056;3.698;2023-02-21T04:56:53;8.90;99.90
70076;DHT22;63241;51.056;3.698;2023-02-21T04:59:21;8.90;99.90
70076;DHT22;63241;51.056;3.698;2023-02-21T05:01:49;8.90;99.90
70076;DHT22;63241;51.056;3.698;2023-02-21T05:04:16;8.90;99.90
70076;DHT22;63241;51.056;3.698;2023-02-21T05:06:44;8.90;99.90
70076;DHT22;63241;51.056;3.698;2023-02-21T05:09:12;8.90;99.90
70076;DHT22;63241;51.056;3.698;2023-02-21T05:11:39;8.90;99.90
70076;DHT22;63241;51.056;3.698;2023-02-21T05:14:07;8.80;99.90
70076;DHT22;63241;51.056;3.698;2023-02-21T05:16:35;8.80;99.90
70076;DHT22;63241;51.056;3.698;2023-02-21T05:19:02;8.90;99.90
70076;DHT22;63241;51.056;3.698;2023-02-21T05:21:33;8.90;99.90
70076;DHT22;63241;51.056;3.698;2023-02-21T05:24:01;8.90;99.90
70076;DHT22;63241;51.056;3.698;2023-02-21T05:26:36;8.90;99.90
70076;DHT22;63241;51.056;3.698;2023-02-21T05:29:00;8.80;99.90
70076;DHT22;63241;51.056;3.698;2023-02-21T05:31:28;8.80;99.90
70076;DHT22;63241;51.056;3.698;2023-02-21T05:33:57;8.80;99.90
70076;DHT22;63241;51.056;3.698;2023-02-21T05:36:25;8.80;99.90
70076;DHT22;63241;51.056;3.698;2023-02-21T05:38:54;8.80;99.90
70076;DHT22;63241;51.056;3.698;2023-02-21T05:41:23;8.80;99.90
70076;DHT22;63241;51.056;3.698;2023-02-21T05:43:51;8.80;99.90
70076;DHT22;63241;51.056;3.698;2023-02-21T05:46:26;8.90;99.90
70076;DHT22;63241;51.056;3.698;2023-02-21T05:48:50;8.90;99.90
70076;DHT22;63241;51.056;3.698;2023-02-21T05:51:18;8.80;99.90
70076;DHT22;63241;51.056;3.698;2023-02-21T05:53:46;8.90;99.90
70076;DHT22;63241;51.056;3.698;2023-02-21T05:56:14;8.90;99.90
70076;DHT22;63241;51.056;3.698;2023-02-21T05:58:43;8.80;99.90
70076;DHT22;63241;51.056;3.698;2023-02-21T06:01:11;8.80;99.90
70076;DHT22;63241;51.056;3.698;2023-02-21T06:03:38;8.80;99.90
70076;DHT22;63241;51.056;3.698;2023-02-21T06:06:06;8.80;99.90
70076;DHT22;63241;51.056;3.698;2023-02-21T06:08:42;8.90;99.90
70076;DHT22;63241;51.056;3.698;2023-02-21T06:11:10;8.90;99.90
70076;DHT22;63241;51.056;3.698;2023-02-21T06:13:38;8.80;99.90
70076;DHT22;63241;51.056;3.698;2023-02-21T06:16:05;8.80;99.90
70076;DHT22;63241;51.056;3.698;2023-02-21T06:18:33;8.80;99.90
70076;DHT22;63241;51.056;3.698;2023-02-21T06:21:01;8.80;99.90
70076;DHT22;63241;51.056;3.698;2023-02-21T06:23:29;8.90;99.90
70076;DHT22;63241;51.056;3.698;2023-02-21T13:10:19;13.00;99.90
70076;DHT22;63241;51.056;3.698;2023-02-21T13:13:07;13.10;99.90
70076;DHT22;63241;51.056;3.698;2023-02-21T13:15:35;13.10;99.90
70076;DHT22;63241;51.056;3.698;2023-02-21T13:20:51;13.10;99.90
70076;DHT22;63241;51.056;3.698;2023-02-21T13:23:40;13.30;99.90
70076;DHT22;63241;51.056;3.698;2023-02-21T13:28:38;13.30;99.90
70076;DHT22;63241;51.056;3.698;2023-02-21T13:31:17;13.40;99.90
70076;DHT22;63241;51.056;3.698;2023-02-21T13:33:53;13.50;99.90
70076;DHT22;63241;51.056;3.698;2023-02-21T13:42:00;13.40;99.90
70076;DHT22;63241;51.056;3.698;2023-02-21T13:44:39;13.30;99.90
70076;DHT22;63241;51.056;3.698;2023-02-21T13:47:21;13.40;99.90
70076;DHT22;63241;51.056;3.698;2023-02-21T13:49:52;13.50;99.90
70076;DHT22;63241;51.056;3.698;2023-02-21T13:52:26;13.30;99.90
70076;DHT22;63241;51.056;3.698;2023-02-21T13:57:51;13.20;99.90
70076;DHT22;63241;51.056;3.698;2023-02-21T14:08:34;13.00;99.90
70076;DHT22;63241;51.056;3.698;2023-02-21T14:13:49;13.10;99.90
70076;DHT22;63241;51.056;3.698;2023-02-21T14:16:17;13.00;99.90
70076;DHT22;63241;51.056;3.698;2023-02-21T14:19:10;13.00;99.90
70076;DHT22;63241;51.056;3.698;2023-02-21T14:24:14;13.00;99.90
70076;DHT22;63241;51.056;3.698;2023-02-21T14:29:26;13.00;99.90
70076;DHT22;63241;51.056;3.698;2023-02-21T17:23:45;9.60;99.90
70076;DHT22;63241;51.056;3.698;2023-02-21T17:26:15;9.40;99.90
70076;DHT22;63241;51.056;3.698;2023-02-21T17:28:43;9.50;99.90
70076;DHT22;63241;51.056;3.698;2023-02-21T17:34:52;9.40;99.90
70076;DHT22;63241;51.056;3.698;2023-02-21T17:37:19;9.40;99.90
70076;DHT22;63241;51.056;3.698;2023-02-21T17:39:52;9.30;99.90
70076;DHT22;63241;51.056;3.698;2023-02-21T17:42:21;9.20;99.90
70076;DHT22;63241;51.056;3.698;2023-02-21T17:48:49;8.90;99.90
70076;DHT22;63241;51.056;3.698;2023-02-21T17:51:20;8.60;99.90
70076;DHT22;63241;51.056;3.698;2023-02-21T17:53:48;8.60;99.90
70076;DHT22;63241;51.056;3.698;2023-02-21T17:56:18;8.60;99.90
70076;DHT22;63241;51.056;3.698;2023-02-21T18:02:25;8.60;99.90
70076;DHT22;63241;51.056;3.698;2023-02-21T18:04:52;8.50;99.90
70076;DHT22;63241;51.056;3.698;2023-02-21T18:07:20;8.60;99.90
70076;DHT22;63241;51.056;3.698;2023-02-21T18:09:48;8.60;99.90
70076;DHT22;63241;51.056;3.698;2023-02-21T18:16:05;8.50;99.90
70076;DHT22;63241;51.056;3.698;2023-02-21T18:18:33;8.50;99.90
70076;DHT22;63241;51.056;3.698;2023-02-21T18:21:01;8.50;99.90
70076;DHT22;63241;51.056;3.698;2023-02-21T18:23:30;8.60;99.90
70076;DHT22;63241;51.056;3.698;2023-02-21T18:28:51;8.70;99.90
70076;DHT22;63241;51.056;3.698;2023-02-21T18:31:19;8.90;99.90
70076;DHT22;63241;51.056;3.698;2023-02-21T18:33:48;8.80;99.90
70076;DHT22;63241;51.056;3.698;2023-02-21T18:36:15;8.70;99.90
70076;DHT22;63241;51.056;3.698;2023-02-21T18:42:44;8.50;99.90
70076;DHT22;63241;51.056;3.698;2023-02-21T18:45:13;8.50;99.90
70076;DHT22;63241;51.056;3.698;2023-02-21T18:47:41;8.40;99.90
70076;DHT22;63241;51.056;3.698;2023-02-21T18:50:09;8.40;99.90
70076;DHT22;63241;51.056;3.698;2023-02-21T18:56:44;8.30;99.90
70076;DHT22;63241;51.056;3.698;2023-02-21T18:59:08;8.30;99.90
70076;DHT22;63241;51.056;3.698;2023-02-21T19:01:36;8.30;99.90
70076;DHT22;63241;51.056;3.698;2023-02-21T19:04:04;8.30;99.90
70076;DHT22;63241;51.056;3.698;2023-02-21T19:10:23;8.10;99.90
70076;DHT22;63241;51.056;3.698;2023-02-21T19:12:51;7.80;99.90
70076;DHT22;63241;51.056;3.698;2023-02-21T19:15:19;7.60;99.90
70076;DHT22;63241;51.056;3.698;2023-02-21T19:17:47;7.60;99.90
70076;DHT22;63241;51.056;3.698;2023-02-21T19:24:14;7.20;99.90
70076;DHT22;63241;51.056;3.698;2023-02-21T19:26:42;7.10;99.90
70076;DHT22;63241;51.056;3.698;2023-02-21T19:29:09;7.10;99.90
70076;DHT22;63241;51.056;3.698;2023-02-21T19:31:37;7.20;99.90
70076;DHT22;63241;51.056;3.698;2023-02-21T19:37:55;7.20;99.90
70076;DHT22;63241;51.056;3.698;2023-02-21T19:40:23;7.10;99.90
70076;DHT22;63241;51.056;3.698;2023-02-21T19:42:52;7.10;99.90
70076;DHT22;63241;51.056;3.698;2023-02-21T19:45:19;7.10;99.90
70076;DHT22;63241;51.056;3.698;2023-02-21T19:51:31;7.00;99.90
70076;DHT22;63241;51.056;3.698;2023-02-21T19:53:59;6.90;99.90
70076;DHT22;63241;51.056;3.698;2023-02-21T19:56:27;7.00;99.90
70076;DHT22;63241;51.056;3.698;2023-02-21T19:58:55;7.00;99.90
70076;DHT22;63241;51.056;3.698;2023-02-21T20:05:11;7.00;99.90
70076;DHT22;63241;51.056;3.698;2023-02-21T20:07:42;6.80;99.90
70076;DHT22;63241;51.056;3.698;2023-02-21T20:10:10;6.80;99.90
70076;DHT22;63241;51.056;3.698;2023-02-21T20:12:38;6.70;99.90
